Time;durP1;ratioP1;P1;durP2;ratioP2;P2;SDS_P1;SDS_P2;PMS_P1;PMS_P2;Temp;Humidity;BMP_temperature;BMP_pressure;BME280_temperature;BME280_humidity;BME280_pressure;Samples;Min_cycle;Max_cycle;Signal;HPM_P1;HPM_P2
2023/07/17 00:02:43;;;;;;;14.70;3.60;;;;;;;21.18;99.99;100234.20;184219;1237;45974;-83
2023/07/17 00:06:45;;;;;;;3.10;2.30;;;;;;;21.18;99.69;100240.73;184038;1234;44357;-83
2023/07/17 00:10:46;;;;;;;3.20;2.90;;;;;;;21.19;99.86;100249.73;184071;1237;45983;-83
2023/07/17 00:14:48;;;;;;;2.60;2.30;;;;;;;21.18;99.70;100254.38;184297;1237;59396;-83
2023/07/17 00:18:50;;;;;;;2.80;2.50;;;;;;;21.17;99.81;100253.75;184314;1233;45625;-83
2023/07/17 00:22:52;;;;;;;3.10;2.30;;;;;;;21.12;99.78;100251.10;184061;1234;44419;-83
2023/07/17 00:26:54;;;;;;;2.90;2.20;;;;;;;21.11;99.81;100243.51;184497;1237;45960;-83
2023/07/17 00:30:56;;;;;;;3.00;2.70;;;;;;;21.21;99.93;100245.34;184308;1234;44097;-83
2023/07/17 00:34:58;;;;;;;4.50;2.30;;;;;;;21.31;99.98;100249.07;184356;1237;59465;-83
2023/07/17 00:39:00;;;;;;;2.90;1.90;;;;;;;21.37;99.81;100246.52;184257;1233;45972;-83
2023/07/17 00:43:01;;;;;;;3.40;2.70;;;;;;;21.44;99.92;100234.84;184571;1235;45900;-84
2023/07/17 00:47:05;;;;;;;3.40;3.00;;;;;;;21.47;99.90;100234.27;184353;1235;46068;-83
2023/07/17 00:51:07;;;;;;;2.60;2.00;;;;;;;21.46;99.54;100237.77;184230;1235;45977;-83
2023/07/17 00:55:09;;;;;;;2.80;2.40;;;;;;;21.46;99.60;100247.13;184368;1234;57790;-83
2023/07/17 00:59:12;;;;;;;3.90;2.30;;;;;;;21.49;99.29;100254.77;184288;1234;45980;-83
2023/07/17 01:03:14;;;;;;;4.20;2.00;;;;;;;21.46;97.93;100250.08;184166;1234;46170;-83
2023/07/17 01:07:16;;;;;;;7.10;2.90;;;;;;;21.39;98.16;100252.81;184570;1235;46033;-83
2023/07/17 01:11:18;;;;;;;2.50;2.10;;;;;;;21.38;98.13;100250.52;184783;1234;46100;-83
2023/07/17 01:15:20;;;;;;;2.00;1.80;;;;;;;21.39;98.51;100262.02;184419;1234;56963;-83
2023/07/17 01:19:22;;;;;;;4.10;2.50;;;;;;;21.43;97.90;100282.40;184403;1234;45953;-83
2023/07/17 01:23:24;;;;;;;2.70;2.40;;;;;;;21.47;98.24;100275.60;184230;1233;45977;-82
2023/07/17 01:27:26;;;;;;;2.70;2.20;;;;;;;21.48;98.24;100255.16;184262;1235;46032;-83
2023/07/17 01:31:28;;;;;;;6.40;2.90;;;;;;;21.50;97.57;100255.80;184302;1234;46055;-83
2023/07/17 01:35:29;;;;;;;3.50;2.30;;;;;;;21.49;97.23;100267.73;184240;1234;58237;-83
2023/07/17 01:39:31;;;;;;;3.60;2.30;;;;;;;21.50;98.52;100272.75;184163;1235;44774;-83
2023/07/17 01:43:33;;;;;;;3.10;2.40;;;;;;;21.52;98.51;100279.46;184322;1234;44731;-83
2023/07/17 01:47:35;;;;;;;4.40;2.90;;;;;;;21.45;97.70;100273.46;184200;1234;45986;-83
2023/07/17 01:51:37;;;;;;;3.50;2.20;;;;;;;21.40;98.02;100278.63;184328;1234;46093;-83
2023/07/17 01:55:39;;;;;;;3.90;2.30;;;;;;;21.38;98.33;100288.57;184264;1236;57966;-83
2023/07/17 01:59:41;;;;;;;3.00;2.50;;;;;;;21.37;99.01;100292.34;184238;1234;46238;-83
2023/07/17 02:03:42;;;;;;;3.60;2.40;;;;;;;21.40;99.96;100291.38;184447;1233;45907;-83
2023/07/17 02:07:44;;;;;;;4.90;2.80;;;;;;;21.46;99.68;100302.88;184240;1234;46103;-83
2023/07/17 02:11:46;;;;;;;2.50;1.60;;;;;;;21.50;99.05;100319.20;184074;1233;46170;-83
2023/07/17 02:15:48;;;;;;;2.90;2.20;;;;;;;21.53;99.83;100320.73;184061;1234;57090;-83
2023/07/17 02:19:49;;;;;;;4.10;2.40;;;;;;;21.57;99.89;100319.38;184325;1233;45957;-83
2023/07/17 02:23:51;;;;;;;4.00;2.50;;;;;;;21.60;100.00;100312.33;184505;1234;44072;-83
2023/07/17 02:27:53;;;;;;;2.70;2.10;;;;;;;21.65;99.87;100308.09;184323;1233;46132;-82
2023/07/17 02:31:55;;;;;;;2.60;2.10;;;;;;;21.61;99.74;100310.20;184295;1233;46124;-82
2023/07/17 02:35:57;;;;;;;3.10;2.60;;;;;;;21.54;99.23;100309.41;184369;1234;59451;-83
2023/07/17 02:39:58;;;;;;;9.10;2.60;;;;;;;21.54;100.00;100317.61;184482;1235;44076;-83
2023/07/17 02:44:00;;;;;;;5.00;2.60;;;;;;;21.54;99.60;100327.86;184320;1234;44499;-83
2023/07/17 02:48:03;;;;;;;4.20;2.70;;;;;;;21.50;98.30;100329.65;184200;1237;46034;-83
2023/07/17 02:52:07;;;;;;;3.40;2.30;;;;;;;21.48;97.54;100331.52;184572;1234;46324;-83
2023/07/17 02:56:08;;;;;;;4.10;2.80;;;;;;;21.50;96.53;100335.11;184141;1235;58520;-83
2023/07/17 03:00:12;;;;;;;3.70;2.80;;;;;;;21.49;95.24;100334.48;184265;1234;46203;-83
2023/07/17 03:04:14;;;;;;;2.50;2.30;;;;;;;21.47;95.60;100331.72;184442;1235;45950;-83
2023/07/17 03:08:16;;;;;;;2.80;2.60;;;;;;;21.49;95.83;100332.48;184268;1237;44559;-83
2023/07/17 03:12:18;;;;;;;12.20;3.00;;;;;;;21.53;95.38;100332.56;184283;1234;46053;-83
2023/07/17 03:16:20;;;;;;;7.60;3.70;;;;;;;21.57;95.25;100325.23;184556;1234;58107;-83
2023/07/17 03:20:22;;;;;;;4.30;2.80;;;;;;;21.46;94.54;100316.59;184561;1236;46227;-83
2023/07/17 03:24:24;;;;;;;4.90;3.60;;;;;;;21.28;95.41;100314.63;184626;1233;46011;-83
2023/07/17 03:28:26;;;;;;;3.80;2.40;;;;;;;21.16;95.72;100312.16;185076;1234;44569;-83
2023/07/17 03:32:34;;;;;;;3.40;2.80;;;;;;;21.08;96.22;100306.23;184593;1234;46035;-84
2023/07/17 03:36:36;;;;;;;3.00;2.10;;;;;;;21.10;95.76;100298.92;184251;1234;57976;-83
2023/07/17 03:40:38;;;;;;;6.10;3.60;;;;;;;21.11;95.44;100299.27;184382;1234;45178;-83
2023/07/17 03:44:40;;;;;;;2.70;2.30;;;;;;;21.03;96.12;100293.63;184475;1233;46098;-83
2023/07/17 03:48:42;;;;;;;3.30;2.80;;;;;;;20.91;96.52;100288.98;184201;1234;45973;-83
2023/07/17 03:52:44;;;;;;;3.40;2.80;;;;;;;20.92;97.81;100281.21;184320;1234;46032;-83
2023/07/17 03:56:46;;;;;;;3.60;3.10;;;;;;;21.00;97.79;100279.77;183908;1234;58602;-83
2023/07/17 04:00:48;;;;;;;3.00;2.60;;;;;;;20.96;98.26;100283.00;184276;1233;45944;-84
2023/07/17 04:04:50;;;;;;;4.40;2.50;;;;;;;20.96;98.67;100278.21;184463;1234;45978;-83
2023/07/17 04:08:52;;;;;;;6.10;3.80;;;;;;;21.02;99.21;100275.67;184050;1237;46103;-83
2023/07/17 04:12:54;;;;;;;5.40;3.10;;;;;;;21.16;99.77;100267.85;184659;1235;46008;-83
2023/07/17 04:16:56;;;;;;;3.80;3.30;;;;;;;21.41;99.41;100271.31;184255;1234;57805;-83
2023/07/17 04:20:58;;;;;;;5.10;3.20;;;;;;;21.64;98.45;100278.05;184404;1233;45979;-83
2023/07/17 04:25:01;;;;;;;3.90;3.10;;;;;;;21.88;97.79;100272.98;184188;1234;44723;-83
2023/07/17 04:29:03;;;;;;;4.30;3.20;;;;;;;22.38;98.56;100275.14;184518;1237;46097;-83
2023/07/17 04:33:05;;;;;;;12.40;4.80;;;;;;;23.42;95.71;100285.36;184724;1233;45967;-83
2023/07/17 04:37:07;;;;;;;4.30;3.40;;;;;;;24.56;88.66;100285.45;184946;1234;59086;-83
2023/07/17 04:41:09;;;;;;;10.30;4.40;;;;;;;25.71;85.93;100284.45;185080;1234;45971;-84
2023/07/17 04:45:12;;;;;;;3.60;2.80;;;;;;;26.44;80.21;100284.23;185273;1234;44048;-84
2023/07/17 04:49:14;;;;;;;3.70;2.40;;;;;;;26.88;77.77;100282.58;185274;1233;44278;-84
2023/07/17 04:53:16;;;;;;;3.70;2.80;;;;;;;27.24;74.95;100281.05;185333;1234;45873;-84
2023/07/17 04:57:18;;;;;;;3.30;2.50;;;;;;;27.77;73.71;100284.48;185235;1234;59130;-84
2023/07/17 05:01:20;;;;;;;4.20;2.70;;;;;;;28.53;71.63;100283.30;185452;1234;46042;-84
2023/07/17 05:05:23;;;;;;;4.20;3.20;;;;;;;28.99;68.09;100289.75;185513;1234;43950;-84
2023/07/17 05:09:26;;;;;;;4.00;2.50;;;;;;;29.42;65.62;100289.34;185390;1234;45912;-84
2023/07/17 05:13:29;;;;;;;4.10;1.70;;;;;;;29.56;62.75;100295.02;185599;1233;45893;-84
2023/07/17 05:17:31;;;;;;;4.00;2.50;;;;;;;29.67;61.71;100296.97;185550;1234;57967;-84
2023/07/17 05:21:34;;;;;;;2.30;2.10;;;;;;;29.70;61.76;100285.89;185644;1233;44280;-84
2023/07/17 05:25:36;;;;;;;3.10;2.30;;;;;;;29.89;60.86;100286.19;185562;1233;44620;-84
2023/07/17 05:29:39;;;;;;;3.50;2.20;;;;;;;30.30;59.78;100285.30;185742;1234;43690;-84
2023/07/17 05:33:41;;;;;;;2.80;2.30;;;;;;;30.69;59.36;100286.64;185557;1234;45922;-85
2023/07/17 05:37:44;;;;;;;5.00;3.10;;;;;;;30.89;58.11;100286.81;185718;1233;57426;-84
2023/07/17 05:41:47;;;;;;;9.90;3.40;;;;;;;31.13;57.93;100280.02;185659;1234;45976;-84
2023/07/17 05:45:49;;;;;;;6.20;2.80;;;;;;;31.36;56.75;100264.42;185745;1237;45950;-84
2023/07/17 05:49:51;;;;;;;3.90;2.60;;;;;;;31.80;56.17;100257.73;185643;1233;43452;-84
2023/07/17 05:53:54;;;;;;;4.30;2.50;;;;;;;32.25;55.60;100258.36;185546;1234;43773;-84
2023/07/17 05:57:56;;;;;;;3.00;1.60;;;;;;;32.39;53.37;100253.36;185681;1233;58551;-84
2023/07/17 06:01:59;;;;;;;2.70;1.50;;;;;;;32.66;52.53;100244.33;185682;1234;43660;-84
2023/07/17 06:06:03;;;;;;;4.20;2.90;;;;;;;32.81;51.93;100228.80;185687;1237;46043;-84
2023/07/17 06:10:07;;;;;;;2.50;1.90;;;;;;;32.91;50.81;100220.45;185473;1237;46040;-84
2023/07/17 06:14:10;;;;;;;17.50;13.20;;;;;;;32.68;49.57;100212.18;185775;1234;44682;-84
2023/07/17 06:18:12;;;;;;;27.60;17.30;;;;;;;32.98;48.75;100211.60;185615;1234;58512;-84
2023/07/17 06:22:15;;;;;;;3.90;2.70;;;;;;;33.47;49.11;100217.58;185772;1234;46023;-84
2023/07/17 06:26:18;;;;;;;4.40;1.90;;;;;;;33.27;46.35;100227.20;185638;1234;45896;-84
2023/07/17 06:30:20;;;;;;;3.00;2.10;;;;;;;33.09;48.32;100240.53;185847;1234;43961;-84
2023/07/17 06:34:23;;;;;;;3.70;1.90;;;;;;;33.16;49.23;100247.56;185876;1234;44176;-84
2023/07/17 06:38:26;;;;;;;2.20;1.70;;;;;;;33.16;47.51;100256.99;185900;1234;58391;-85
2023/07/17 06:42:30;;;;;;;2.70;1.90;;;;;;;33.07;47.05;100259.27;186074;1234;45893;-84
2023/07/17 06:46:33;;;;;;;7.30;2.80;;;;;;;32.78;45.35;100256.52;185846;1234;45971;-83
2023/07/17 06:50:36;;;;;;;2.80;2.20;;;;;;;32.19;46.14;100252.29;185546;1233;263332;-84
2023/07/17 06:54:39;;;;;;;2.20;1.90;;;;;;;31.46;47.92;100247.55;185647;1234;43795;-84
2023/07/17 06:59:01;;;;;;;3.50;2.20;;;;;;;31.39;48.73;100235.36;185728;1234;58007;-84
2023/07/17 07:03:04;;;;;;;5.50;3.30;;;;;;;31.48;47.56;100241.45;185623;1234;46033;-84
2023/07/17 07:07:06;;;;;;;7.40;2.30;;;;;;;31.45;47.00;100244.02;185693;1233;43414;-84
2023/07/17 07:11:10;;;;;;;4.80;2.70;;;;;;;31.14;46.55;100263.28;185606;1235;45864;-84
2023/07/17 07:15:12;;;;;;;6.50;2.70;;;;;;;30.81;47.61;100262.59;185665;1234;45884;-84
2023/07/17 07:19:15;;;;;;;4.90;3.00;;;;;;;30.55;47.75;100263.10;185694;1233;58207;-84
2023/07/17 07:23:18;;;;;;;8.30;3.20;;;;;;;30.46;50.35;100265.32;185610;1237;46057;-84
2023/07/17 07:27:21;;;;;;;5.40;3.40;;;;;;;30.37;52.98;100272.64;185652;1235;44313;-84
2023/07/17 07:31:23;;;;;;;9.70;4.20;;;;;;;30.37;54.51;100275.61;185689;1234;44530;-84
2023/07/17 07:35:26;;;;;;;6.70;2.70;;;;;;;30.55;54.18;100278.09;185681;1235;45862;-84
2023/07/17 07:39:29;;;;;;;6.20;3.20;;;;;;;30.45;55.46;100277.07;185427;1233;58279;-84
2023/07/17 07:43:31;;;;;;;3.20;2.40;;;;;;;30.30;56.83;100272.67;185532;1234;45957;-84
2023/07/17 07:47:34;;;;;;;5.20;2.70;;;;;;;30.19;58.03;100278.54;185420;1234;43659;-84
2023/07/17 07:51:36;;;;;;;4.00;2.30;;;;;;;30.01;56.60;100292.30;185662;1234;45968;-84
2023/07/17 07:55:39;;;;;;;4.30;2.80;;;;;;;29.86;58.04;100279.27;185375;1235;44580;-85
2023/07/17 07:59:51;;;;;;;3.30;2.10;;;;;;;29.87;59.65;100281.65;185443;1234;57907;-84
2023/07/17 08:03:54;;;;;;;3.00;2.00;;;;;;;29.72;58.46;100277.69;185642;1233;44978;-84
2023/07/17 08:07:56;;;;;;;2.30;2.10;;;;;;;29.79;59.77;100282.59;185676;1233;43701;-84
2023/07/17 08:11:58;;;;;;;4.30;3.10;;;;;;;29.53;59.49;100297.05;185515;1234;44568;-84
2023/07/17 08:16:01;;;;;;;4.00;2.30;;;;;;;29.22;59.68;100307.08;185594;1233;44621;-84
2023/07/17 08:20:04;;;;;;;6.70;3.10;;;;;;;28.85;59.13;100308.19;185465;1234;58056;-84
2023/07/17 08:24:07;;;;;;;4.70;2.20;;;;;;;28.50;60.35;100314.45;185452;1236;43377;-84
2023/07/17 08:28:09;;;;;;;4.90;2.80;;;;;;;28.39;58.94;100318.06;185345;1234;44565;-85
2023/07/17 08:32:12;;;;;;;3.30;2.80;;;;;;;28.34;56.73;100328.10;185394;1234;45906;-84
2023/07/17 08:36:14;;;;;;;4.20;2.70;;;;;;;28.39;54.90;100331.91;185314;1234;45929;-84
2023/07/17 08:40:16;;;;;;;8.10;3.50;;;;;;;28.40;54.89;100329.91;185675;1236;57822;-84
2023/07/17 08:44:20;;;;;;;2.80;2.60;;;;;;;28.54;54.96;100321.30;185269;1234;46031;-84
2023/07/17 08:48:24;;;;;;;2.70;2.20;;;;;;;28.41;55.55;100317.44;185427;1237;45759;-84
2023/07/17 08:52:28;;;;;;;5.30;2.90;;;;;;;28.36;54.65;100322.13;185244;1234;46142;-84
2023/07/17 08:56:31;;;;;;;6.70;3.30;;;;;;;28.53;55.02;100325.02;185150;1234;45903;-84
2023/07/17 09:00:34;;;;;;;4.70;2.40;;;;;;;28.66;55.18;100325.67;185509;1233;56815;-85
2023/07/17 09:04:36;;;;;;;5.60;3.60;;;;;;;28.89;54.68;100315.32;185490;1234;44033;-84
2023/07/17 09:08:39;;;;;;;4.60;2.90;;;;;;;29.07;52.53;100312.66;185556;1233;44012;-84
2023/07/17 09:12:43;;;;;;;10.00;3.70;;;;;;;29.07;49.83;100312.90;185567;1234;44614;-84
2023/07/17 09:16:46;;;;;;;4.20;3.30;;;;;;;29.16;49.12;100308.27;185573;1234;44145;-84
2023/07/17 09:21:04;;;;;;;7.20;3.40;;;;;;;29.39;48.38;100301.11;185267;1233;57798;-84
2023/07/17 09:25:08;;;;;;;9.40;4.90;;;;;;;29.40;47.66;100299.11;185276;1233;45941;-85
2023/07/17 09:29:14;;;;;;;4.10;2.90;;;;;;;29.59;47.35;100293.67;185338;1234;46108;-84
2023/07/17 09:33:24;;;;;;;4.80;3.10;;;;;;;29.49;47.05;100305.92;185439;1233;45962;-84
2023/07/17 09:37:31;;;;;;;3.50;2.60;;;;;;;29.76;46.80;100304.16;185484;1233;46212;-84
2023/07/17 09:41:34;;;;;;;6.40;2.90;;;;;;;29.94;46.16;100291.27;185490;1234;58402;-84
2023/07/17 09:45:37;;;;;;;5.50;2.60;;;;;;;29.74;46.75;100292.96;185681;1234;45890;-84
2023/07/17 09:49:40;;;;;;;7.20;2.70;;;;;;;29.80;46.85;100292.16;185370;1234;45955;-84
2023/07/17 09:53:45;;;;;;;4.20;3.20;;;;;;;29.84;46.19;100291.50;185499;1234;45142;-84
2023/07/17 09:57:52;;;;;;;13.60;3.50;;;;;;;29.94;45.62;100293.70;185592;1234;46354;-85
2023/07/17 10:01:57;;;;;;;4.90;3.30;;;;;;;30.23;45.44;100299.21;185795;1235;57798;-84
2023/07/17 10:06:01;;;;;;;11.00;3.80;;;;;;;30.57;45.36;100293.70;185711;1234;45170;-84
2023/07/17 10:10:05;;;;;;;4.60;2.60;;;;;;;30.53;44.49;100294.70;185566;1234;45947;-84
2023/07/17 10:14:12;;;;;;;4.20;2.90;;;;;;;30.12;44.76;100297.55;185606;1233;45676;-85
2023/07/17 10:18:14;;;;;;;3.20;2.90;;;;;;;29.96;45.35;100298.72;185623;1234;45890;-84
2023/07/17 10:22:17;;;;;;;5.70;3.80;;;;;;;30.11;45.86;100290.75;185526;1234;57816;-85
2023/07/17 10:26:21;;;;;;;8.30;3.20;;;;;;;30.35;45.40;100283.10;185855;1236;43775;-84
2023/07/17 10:30:25;;;;;;;6.70;3.40;;;;;;;30.31;44.93;100280.27;185564;1236;44475;-84
2023/07/17 10:34:47;;;;;;;4.50;2.50;;;;;;;30.27;45.89;100284.56;185657;1233;44506;-84
2023/07/17 10:38:53;;;;;;;6.80;3.40;;;;;;;30.04;46.56;100283.65;185617;1234;44414;-84
2023/07/17 10:43:10;;;;;;;6.50;3.50;;;;;;;30.17;46.62;100283.23;185785;1235;60165;-85
2023/07/17 10:47:13;;;;;;;5.40;3.20;;;;;;;30.30;46.09;100274.77;185438;1233;44489;-85
2023/07/17 10:51:15;;;;;;;4.00;2.70;;;;;;;30.56;47.41;100268.84;185530;1234;44192;-85
2023/07/17 10:55:18;;;;;;;4.80;3.50;;;;;;;30.51;45.69;100270.10;185632;1234;44109;-84
2023/07/17 10:59:22;;;;;;;7.40;3.30;;;;;;;30.54;45.59;100266.60;185467;1234;45976;-84
2023/07/17 11:03:26;;;;;;;6.10;3.40;;;;;;;30.61;45.30;100260.91;185494;1234;60654;-84
2023/07/17 11:07:36;;;;;;;6.40;2.80;;;;;;;30.52;45.26;100265.39;185600;1234;45884;-85
2023/07/17 11:11:38;;;;;;;10.30;4.40;;;;;;;30.57;45.64;100255.23;185435;1235;44054;-84
2023/07/17 11:15:43;;;;;;;5.20;3.90;;;;;;;30.50;45.87;100258.01;185533;1234;46104;-84
2023/07/17 11:19:46;;;;;;;4.50;3.30;;;;;;;30.17;45.28;100257.84;185434;1235;45934;-85
2023/07/17 11:23:53;;;;;;;7.10;2.20;;;;;;;29.91;45.62;100254.79;186492;1234;58082;-84
2023/07/17 11:27:59;;;;;;;4.30;2.90;;;;;;;29.97;46.50;100245.64;185485;1237;44748;-85
2023/07/17 11:32:01;;;;;;;5.60;2.70;;;;;;;30.10;46.36;100237.42;185726;1234;44539;-84
2023/07/17 11:36:15;;;;;;;4.10;3.40;;;;;;;30.38;45.70;100231.67;185675;1236;43693;-84
2023/07/17 11:40:18;;;;;;;4.00;2.70;;;;;;;30.61;45.98;100223.65;185705;1235;44370;-84
2023/07/17 11:44:26;;;;;;;5.10;3.10;;;;;;;30.70;45.03;100215.56;185697;1234;56981;-85
2023/07/17 11:48:32;;;;;;;3.40;2.60;;;;;;;30.72;44.85;100211.89;185600;1234;46030;-85
2023/07/17 11:52:34;;;;;;;4.30;2.80;;;;;;;30.64;44.74;100222.69;185697;1235;43916;-85
2023/07/17 11:56:42;;;;;;;6.50;3.20;;;;;;;30.64;44.51;100212.05;185364;1237;45984;-85
2023/07/17 12:00:49;;;;;;;7.80;3.70;;;;;;;30.86;44.09;100210.13;185560;1235;45938;-85
2023/07/17 12:04:52;;;;;;;8.10;3.20;;;;;;;30.87;44.20;100206.52;185513;1235;58051;-85
2023/07/17 12:08:54;;;;;;;3.60;2.80;;;;;;;31.00;44.00;100209.07;185638;1237;44463;-85
2023/07/17 12:12:57;;;;;;;8.50;3.60;;;;;;;31.21;43.19;100203.99;185638;1233;44032;-85
2023/07/17 12:17:00;;;;;;;5.80;3.80;;;;;;;31.36;41.91;100206.45;185760;1237;43377;-85
2023/07/17 12:21:02;;;;;;;8.40;3.30;;;;;;;31.24;42.29;100204.02;185754;1233;43731;-84
2023/07/17 12:25:05;;;;;;;5.40;3.80;;;;;;;31.44;42.38;100208.40;186339;1234;57429;-84
2023/07/17 12:29:07;;;;;;;4.60;3.20;;;;;;;31.63;41.59;100205.41;185790;1234;44647;-85
2023/07/17 12:33:10;;;;;;;5.40;3.00;;;;;;;31.29;41.22;100211.12;185624;1235;45878;-84
2023/07/17 12:37:12;;;;;;;5.30;2.90;;;;;;;30.70;41.05;100215.58;185536;1237;44612;-85
2023/07/17 12:41:14;;;;;;;5.20;2.90;;;;;;;30.60;42.95;100216.50;185526;1233;45125;-84
2023/07/17 12:45:17;;;;;;;5.50;2.90;;;;;;;30.80;41.97;100211.90;185629;1234;57883;-84
2023/07/17 12:49:20;;;;;;;6.50;2.90;;;;;;;30.70;42.15;100210.83;185496;1235;45969;-85
2023/07/17 12:53:22;;;;;;;9.80;4.60;;;;;;;30.47;42.88;100203.71;185422;1234;43670;-86
2023/07/17 12:57:25;;;;;;;10.00;4.00;;;;;;;30.45;42.75;100209.23;185337;1235;46110;-86
2023/07/17 13:01:31;;;;;;;6.60;3.80;;;;;;;30.59;42.73;100193.27;185154;1235;46085;-86
2023/07/17 13:05:33;;;;;;;7.30;3.70;;;;;;;30.69;43.32;100192.39;185215;1234;57911;-86
2023/07/17 13:09:36;;;;;;;8.00;3.40;;;;;;;31.21;42.55;100190.98;185272;1234;46203;-86
2023/07/17 13:13:38;;;;;;;10.60;4.00;;;;;;;31.33;40.89;100185.88;185118;1235;46469;-87
2023/07/17 13:17:40;;;;;;;5.00;3.70;;;;;;;30.93;41.16;100190.35;185249;1234;45960;-86
2023/07/17 13:21:48;;;;;;;4.00;2.90;;;;;;;30.95;41.56;100195.04;185366;1235;45998;-86
2023/07/17 13:25:50;;;;;;;10.00;4.20;;;;;;;30.85;41.53;100191.08;185363;1234;58005;-86
2023/07/17 13:29:54;;;;;;;8.60;3.70;;;;;;;30.58;41.45;100184.27;185344;1234;45973;-86
2023/07/17 13:33:56;;;;;;;5.60;2.90;;;;;;;30.58;42.74;100184.38;185362;1235;44660;-86
2023/07/17 13:37:58;;;;;;;4.40;3.10;;;;;;;30.90;41.68;100178.86;185229;1235;44391;-86
2023/07/17 13:42:00;;;;;;;5.60;4.20;;;;;;;30.79;41.06;100177.91;185180;1235;46673;-86
2023/07/17 13:46:03;;;;;;;6.90;3.50;;;;;;;30.47;40.97;100175.13;185112;1235;57820;-86
2023/07/17 13:50:06;;;;;;;7.00;3.40;;;;;;;30.41;41.84;100177.21;185261;1235;44478;-85
2023/07/17 13:54:09;;;;;;;5.10;2.90;;;;;;;30.60;41.60;100179.73;185017;1235;44662;-86
2023/07/17 13:58:12;;;;;;;6.20;3.10;;;;;;;30.70;41.14;100163.73;185161;1235;45099;-85
2023/07/17 14:02:17;;;;;;;6.00;4.50;;;;;;;30.72;40.65;100152.56;184955;1235;45941;-86
2023/07/17 14:06:20;;;;;;;5.70;3.20;;;;;;;30.84;40.05;100146.31;185373;1234;58946;-86
2023/07/17 14:10:23;;;;;;;10.90;4.00;;;;;;;30.68;39.73;100144.66;185368;1237;45960;-85
2023/07/17 14:14:28;;;;;;;5.70;4.10;;;;;;;30.90;39.33;100141.63;185587;1233;45979;-85
2023/07/17 14:18:32;;;;;;;5.40;3.20;;;;;;;31.05;39.41;100140.94;185520;1233;46100;-86
2023/07/17 14:22:39;;;;;;;5.00;3.90;;;;;;;31.27;39.37;100134.54;185393;1237;43804;-85
2023/07/17 14:26:41;;;;;;;5.80;3.10;;;;;;;31.46;39.27;100131.08;185409;1235;57933;-86
2023/07/17 14:30:44;;;;;;;6.50;3.90;;;;;;;31.63;38.75;100121.63;185406;1237;46088;-85
2023/07/17 14:34:46;;;;;;;5.30;3.70;;;;;;;31.69;38.20;100120.16;185413;1233;45854;-85
2023/07/17 14:38:48;;;;;;;8.00;3.20;;;;;;;31.63;38.32;100120.70;185266;1235;45895;-85
2023/07/17 14:42:52;;;;;;;5.60;3.80;;;;;;;31.61;38.24;100119.58;185277;1237;44530;-85
2023/07/17 14:46:54;;;;;;;6.00;3.50;;;;;;;31.50;37.71;100118.89;185260;1234;57934;-85
2023/07/17 14:50:57;;;;;;;5.20;3.20;;;;;;;31.51;38.27;100115.39;185285;1235;44135;-84
2023/07/17 14:55:00;;;;;;;5.10;3.20;;;;;;;31.53;38.29;100116.94;185436;1235;46068;-85
2023/07/17 14:59:02;;;;;;;4.20;3.00;;;;;;;31.62;38.09;100115.02;185231;1234;46179;-86
2023/07/17 15:03:04;;;;;;;3.60;3.20;;;;;;;31.66;37.99;100107.56;185290;1235;45923;-85
2023/07/17 15:07:08;;;;;;;5.20;2.80;;;;;;;31.56;37.76;100102.05;185293;1237;57990;-86
2023/07/17 15:11:11;;;;;;;14.60;4.90;;;;;;;31.58;37.94;100097.25;185362;1234;44861;-86
2023/07/17 15:15:14;;;;;;;6.10;2.90;;;;;;;31.55;37.65;100088.12;185073;1233;46129;-86
2023/07/17 15:19:16;;;;;;;8.20;4.10;;;;;;;31.61;37.51;100085.83;185195;1235;44053;-86
2023/07/17 15:23:18;;;;;;;5.70;3.80;;;;;;;31.63;37.37;100081.65;185263;1234;46022;-86
2023/07/17 15:27:21;;;;;;;5.60;3.00;;;;;;;31.46;37.56;100085.64;185962;1234;58685;-85
2023/07/17 15:31:23;;;;;;;5.30;3.10;;;;;;;31.53;37.52;100084.28;185737;1235;45910;-86
2023/07/17 15:35:25;;;;;;;5.60;3.20;;;;;;;31.67;37.66;100077.15;185535;1235;43666;-86
2023/07/17 15:39:27;;;;;;;6.60;4.10;;;;;;;31.73;37.63;100075.24;185104;1234;46824;-87
2023/07/17 15:43:29;;;;;;;4.80;3.00;;;;;;;31.56;37.54;100076.48;185254;1235;44293;-87
2023/07/17 15:47:31;;;;;;;5.90;3.20;;;;;;;31.54;37.79;100077.08;185058;1235;59259;-86
2023/07/17 15:51:34;;;;;;;11.80;3.80;;;;;;;31.60;38.07;100079.89;185074;1235;44558;-85
2023/07/17 15:55:37;;;;;;;6.50;2.80;;;;;;;31.58;38.45;100084.88;185077;1235;46125;-86
2023/07/17 15:59:39;;;;;;;15.90;4.90;;;;;;;31.51;37.94;100084.60;185508;1234;43586;-85
2023/07/17 16:03:41;;;;;;;11.00;4.50;;;;;;;31.49;38.17;100083.11;185291;1234;45990;-85
2023/07/17 16:07:43;;;;;;;4.50;2.90;;;;;;;31.48;38.11;100084.31;185197;1237;59542;-85
2023/07/17 16:11:46;;;;;;;8.40;4.10;;;;;;;31.37;38.08;100086.98;185321;1233;44567;-85
2023/07/17 16:15:48;;;;;;;4.90;3.30;;;;;;;31.19;38.54;100081.41;185084;1234;44559;-86
2023/07/17 16:19:50;;;;;;;5.10;3.50;;;;;;;30.96;38.73;100081.36;185386;1234;45845;-85
2023/07/17 16:23:52;;;;;;;7.90;4.20;;;;;;;30.82;39.04;100077.45;185430;1235;44176;-85
2023/07/17 16:27:56;;;;;;;7.30;4.20;;;;;;;30.80;39.41;100075.79;185258;1234;57979;-86
2023/07/17 16:31:58;;;;;;;4.80;3.00;;;;;;;30.72;38.95;100075.48;185321;1234;43694;-86
2023/07/17 16:36:00;;;;;;;5.30;2.40;;;;;;;30.65;38.91;100078.08;185209;1235;46075;-85
2023/07/17 16:40:05;;;;;;;4.60;3.10;;;;;;;30.55;39.12;100077.43;185159;1233;46094;-85
2023/07/17 16:44:08;;;;;;;4.50;3.10;;;;;;;30.53;39.98;100074.90;185510;1234;46293;-86
2023/07/17 16:48:13;;;;;;;4.40;3.00;;;;;;;30.57;39.51;100076.06;184823;1235;58074;-87
2023/07/17 16:52:15;;;;;;;4.50;2.90;;;;;;;30.62;38.84;100083.31;184721;1233;45902;-84
2023/07/17 16:56:18;;;;;;;8.50;3.00;;;;;;;30.59;38.47;100080.27;185472;1237;46033;-85
2023/07/17 17:00:23;;;;;;;9.40;3.90;;;;;;;30.55;38.45;100079.95;185183;1234;46015;-86
2023/07/17 17:04:25;;;;;;;6.00;2.70;;;;;;;30.55;39.42;100079.34;184933;1235;45132;-86
2023/07/17 17:08:27;;;;;;;3.60;2.90;;;;;;;30.53;39.89;100080.11;185133;1234;57895;-86
2023/07/17 17:12:30;;;;;;;4.90;3.10;;;;;;;30.37;39.56;100083.89;184954;1235;45906;-87
2023/07/17 17:16:32;;;;;;;4.50;3.30;;;;;;;30.15;40.30;100087.23;185232;1233;45950;-86
2023/07/17 17:20:34;;;;;;;5.10;2.80;;;;;;;29.90;40.68;100088.70;184838;1234;46056;-86
2023/07/17 17:24:36;;;;;;;4.70;3.00;;;;;;;29.85;41.60;100091.45;184935;1234;45976;-86
2023/07/17 17:28:39;;;;;;;6.20;3.60;;;;;;;29.78;41.95;100091.60;184892;1234;58075;-87
2023/07/17 17:32:41;;;;;;;7.90;3.40;;;;;;;29.70;41.10;100090.33;185013;1234;43865;-86
2023/07/17 17:36:44;;;;;;;7.10;2.80;;;;;;;29.64;41.08;100087.67;185466;1235;45983;-85
2023/07/17 17:40:46;;;;;;;5.40;3.10;;;;;;;29.55;41.71;100092.35;185266;1234;44026;-86
2023/07/17 17:44:49;;;;;;;6.60;2.90;;;;;;;29.40;42.16;100091.46;185061;1237;45910;-86
2023/07/17 17:48:51;;;;;;;14.80;3.30;;;;;;;29.29;42.70;100095.21;184713;1233;57858;-85
2023/07/17 17:52:53;;;;;;;6.50;3.90;;;;;;;29.13;43.36;100095.56;185057;1234;45870;-86
2023/07/17 17:56:57;;;;;;;5.60;3.50;;;;;;;28.99;43.88;100096.97;184825;1234;43959;-86
2023/07/17 18:01:00;;;;;;;8.50;3.80;;;;;;;28.82;44.60;100099.81;185229;1234;44887;-86
2023/07/17 18:05:02;;;;;;;4.10;3.30;;;;;;;28.69;46.38;100102.17;185073;1234;45971;-86
2023/07/17 18:09:05;;;;;;;15.20;4.10;;;;;;;28.55;46.88;100101.85;185167;1233;58349;-85
2023/07/17 18:13:07;;;;;;;10.10;4.50;;;;;;;28.46;46.61;100099.48;184932;1233;44477;-86
2023/07/17 18:17:09;;;;;;;10.20;6.20;;;;;;;28.39;47.56;100102.77;185231;1233;45832;-85
2023/07/17 18:21:12;;;;;;;18.80;5.10;;;;;;;28.30;48.74;100101.42;184843;1235;44847;-87
2023/07/17 18:25:14;;;;;;;13.10;5.80;;;;;;;28.18;50.38;100108.27;184977;1237;45919;-87
2023/07/17 18:29:16;;;;;;;7.90;4.20;;;;;;;28.01;50.66;100107.30;184937;1233;57803;-85
2023/07/17 18:33:18;;;;;;;8.50;4.10;;;;;;;27.80;51.32;100113.61;185378;1236;45948;-85
2023/07/17 18:37:20;;;;;;;22.00;5.60;;;;;;;27.59;51.68;100117.41;185047;1234;43549;-85